sensor_id;sensor_type;location;lat;lon;timestamp;temperature;humidity
22108;DHT22;11220;48.812;9.128;2022-08-18T05:46:43;22.20;91.80
22108;DHT22;11220;48.812;9.128;2022-08-18T05:49:11;22.20;91.80
22108;DHT22;11220;48.812;9.128;2022-08-18T05:51:46;22.30;91.80
22108;DHT22;11220;48.812;9.128;2022-08-18T05:54:13;22.50;91.90
22108;DHT22;11220;48.812;9.128;2022-08-18T05:57:09;22.20;91.80
22108;DHT22;11220;48.812;9.128;2022-08-18T05:59:57;22.20;91.80
22108;DHT22;11220;48.812;9.128;2022-08-18T06:02:36;22.20;91.80
22108;DHT22;11220;48.812;9.128;2022-08-18T06:05:07;22.30;91.90
22108;DHT22;11220;48.812;9.128;2022-08-18T06:07:40;22.20;91.80
22108;DHT22;11220;48.812;9.128;2022-08-18T06:10:07;22.60;92.00
22108;DHT22;11220;48.812;9.128;2022-08-18T06:12:43;22.30;91.90
22108;DHT22;11220;48.812;9.128;2022-08-18T06:15:31;22.20;91.80
22108;DHT22;11220;48.812;9.128;2022-08-18T06:18:02;22.30;91.90
22108;DHT22;11220;48.812;9.128;2022-08-18T06:21:09;22.30;91.90
22108;DHT22;11220;48.812;9.128;2022-08-18T06:27:08;22.30;91.90
22108;DHT22;11220;48.812;9.128;2022-08-18T06:32:47;22.30;91.90
22108;DHT22;11220;48.812;9.128;2022-08-18T06:35:25;22.30;91.90
22108;DHT22;11220;48.812;9.128;2022-08-18T06:43:43;22.10;91.90
22108;DHT22;11220;48.812;9.128;2022-08-18T06:46:19;22.80;92.10
22108;DHT22;11220;48.812;9.128;2022-08-18T06:48:59;21.30;91.70
22108;DHT22;11220;48.812;9.128;2022-08-18T06:51:30;22.30;91.90
22108;DHT22;11220;48.812;9.128;2022-08-18T06:54:24;22.30;92.40
22108;DHT22;11220;48.812;9.128;2022-08-18T06:56:54;22.30;92.00
22108;DHT22;11220;48.812;9.128;2022-08-18T06:59:28;22.30;92.10
22108;DHT22;11220;48.812;9.128;2022-08-18T07:02:52;22.30;92.00
22108;DHT22;11220;48.812;9.128;2022-08-18T07:05:23;23.70;92.40
22108;DHT22;11220;48.812;9.128;2022-08-18T07:10:37;22.40;92.00
22108;DHT22;11220;48.812;9.128;2022-08-18T07:15:37;22.40;91.90
22108;DHT22;11220;48.812;9.128;2022-08-18T07:18:05;22.40;91.90
22108;DHT22;11220;48.812;9.128;2022-08-18T07:21:03;22.40;91.90
22108;DHT22;11220;48.812;9.128;2022-08-18T07:23:38;22.40;92.00
22108;DHT22;11220;48.812;9.128;2022-08-18T07:26:11;22.40;91.80
22108;DHT22;11220;48.812;9.128;2022-08-18T07:28:47;22.40;91.80
22108;DHT22;11220;48.812;9.128;2022-08-18T08:21:08;21.60;93.20
22108;DHT22;11220;48.812;9.128;2022-08-18T08:24:25;21.60;93.20
22108;DHT22;11220;48.812;9.128;2022-08-18T14:56:34;23.80;91.40
22108;DHT22;11220;48.812;9.128;2022-08-18T14:59:00;23.80;91.30
22108;DHT22;11220;48.812;9.128;2022-08-18T15:01:26;23.80;91.40
22108;DHT22;11220;48.812;9.128;2022-08-18T15:03:54;23.80;91.30
22108;DHT22;11220;48.812;9.128;2022-08-18T16:21:24;24.00;90.70
22108;DHT22;11220;48.812;9.128;2022-08-18T16:23:51;24.20;90.80
22108;DHT22;11220;48.812;9.128;2022-08-18T16:26:19;24.30;90.70
22108;DHT22;11220;48.812;9.128;2022-08-18T16:28:47;24.70;90.80
22108;DHT22;11220;48.812;9.128;2022-08-18T16:31:16;24.00;90.60
22108;DHT22;11220;48.812;9.128;2022-08-18T20:18:47;23.70;88.80
22108;DHT22;11220;48.812;9.128;2022-08-18T20:29:06;23.60;88.80
